Terminal Aerodrome Forecast
Issued by NWS Charleston, WV

Current Version | Previous Version | Graphics & Text | Print | Product List | Glossary On
Versions: 1 2 3 4 5 6 7 8 9 10 11 12 13 14 15 16 17 18 19 20 21 22 23 24
251
FTUS41 KRLX 270538
TAFBKW
TAF
KBKW 270538Z 2706/2806 19006KT P6SM SHRA BKN035
     FM270900 20006KT 6SM BR VCSH BKN025
     FM271400 23007KT P6SM BKN035
     FM272100 23006KT P6SM VCSH BKN060
     FM280300 17004KT P6SM SHRA VCTS BKN060CB=

USA.gov is the U.S. government's official web portal to all federal, state and local government web resources and services.